Time;durP1;ratioP1;P1;durP2;ratioP2;P2;SDS_P1;SDS_P2;PMS_P1;PMS_P2;Temp;Humidity;BMP_temperature;BMP_pressure;BME280_temperature;BME280_humidity;BME280_pressure;Samples;Min_cycle;Max_cycle;Signal;HPM_P1;HPM_P2
2023/06/28 00:02:25;;;;;;;;;0.00;0.00;;;;;19.72;68.83;101852.81;5019386;28;45660;-77
2023/06/28 00:04:55;;;;;;;;;0.00;0.00;;;;;19.75;67.39;101860.66;5038680;28;45350;-77
2023/06/28 00:07:33;;;;;;;;;0.00;0.00;;;;;20.01;67.78;101915.25;5039838;28;45545;-77
2023/06/28 00:10:05;;;;;;;;;0.00;0.00;;;;;19.32;67.50;101784.88;5023531;28;45374;-77
2023/06/28 00:12:46;;;;;;;;;0.00;0.00;;;;;19.75;68.20;101860.66;5020801;28;45393;-77
2023/06/28 00:15:20;;;;;;;;;0.00;0.00;;;;;19.97;69.16;101903.00;5042603;28;45441;-78
2023/06/28 00:17:55;;;;;;;;;0.67;0.00;;;;;19.92;68.89;101899.78;5042591;28;45342;-77
2023/06/28 00:20:24;;;;;;;;;0.00;0.00;;;;;19.64;68.27;101853.34;5041327;28;45219;-77
2023/06/28 00:22:50;;;;;;;;;0.00;0.00;;;;;19.45;68.33;101820.66;5019104;28;45287;-77
2023/06/28 00:25:41;;;;;;;;;0.00;0.00;;;;;19.65;67.35;101854.19;5042749;28;45341;-77
2023/06/28 00:28:06;;;;;;;;;0.00;0.00;;;;;19.30;68.74;101805.59;5015393;28;45306;-77
2023/06/28 00:30:39;;;;;;;;;0.00;0.00;;;;;19.16;68.29;101794.91;5039643;28;45310;-77
2023/06/28 00:33:07;;;;;;;;;0.33;0.00;;;;;19.60;68.75;101861.72;5021019;28;45394;-77
2023/06/28 00:35:33;;;;;;;;;0.00;0.00;;;;;19.51;69.03;101859.63;5039950;28;46260;-77
2023/06/28 00:38:00;;;;;;;;;0.00;0.00;;;;;19.24;69.67;101800.59;5021882;28;45542;-77
2023/06/28 00:40:29;;;;;;;;;0.00;0.00;;;;;19.27;67.94;101806.63;5042698;28;45447;-77
2023/06/28 00:43:00;;;;;;;;;0.00;0.00;;;;;19.54;69.53;101854.91;5041956;28;45392;-77
2023/06/28 00:45:29;;;;;;;;;0.00;0.00;;;;;19.37;68.31;101816.75;5020133;28;45511;-77
2023/06/28 00:47:58;;;;;;;;;0.00;0.00;;;;;19.47;69.25;101855.47;5042164;28;45325;-77
2023/06/28 00:50:29;;;;;;;;;0.00;0.00;;;;;19.17;68.83;101800.16;5040099;28;45298;-77
2023/06/28 00:52:57;;;;;;;;;0.00;0.00;;;;;19.37;69.75;101822.97;5016480;28;45672;-78
2023/06/28 00:55:25;;;;;;;;;0.00;0.00;;;;;19.23;69.89;101790.88;5044281;28;45589;-78
2023/06/28 00:57:53;;;;;;;;;0.00;0.00;;;;;19.69;71.26;101866.44;5019882;28;45437;-77
2023/06/28 01:00:26;;;;;;;;;0.00;0.00;;;;;19.38;71.55;101823.81;5036992;28;45402;-78
2023/06/28 01:02:51;;;;;;;;;0.00;0.00;;;;;19.70;71.18;101868.16;5022655;28;45449;-77
2023/06/28 01:05:19;;;;;;;;;0.00;0.00;;;;;19.75;70.38;101877.63;5037787;28;45762;-77
2023/06/28 01:07:47;;;;;;;;;0.67;0.00;;;;;19.56;68.75;101844.09;5040326;28;45387;-78
2023/06/28 01:10:13;;;;;;;;;0.33;0.00;;;;;19.63;69.91;101858.81;5043309;28;45558;-78
2023/06/28 01:12:40;;;;;;;;;0.00;0.00;;;;;19.56;70.48;101844.97;5029679;28;45528;-78
2023/06/28 01:15:06;;;;;;;;;0.00;0.00;;;;;19.59;71.46;101858.16;5020603;28;48656;-78
2023/06/28 01:17:31;;;;;;;;;0.33;0.00;;;;;19.71;70.59;101881.47;5049645;28;45416;-78
2023/06/28 01:19:56;;;;;;;;;0.00;0.00;;;;;19.70;69.30;101879.75;5044339;28;45979;-78
2023/06/28 01:22:25;;;;;;;;;0.00;0.00;;;;;19.58;68.38;101860.94;5018609;28;45532;-78
2023/06/28 01:24:50;;;;;;;;;0.00;0.00;;;;;19.56;70.54;101857.50;5032626;28;47432;-78
2023/06/28 01:27:16;;;;;;;;;2.00;0.00;;;;;19.66;70.51;101863.97;5040832;28;45274;-78
2023/06/28 01:29:42;;;;;;;;;0.00;0.00;;;;;19.66;70.26;101877.41;5019929;28;45573;-77
2023/06/28 01:32:08;;;;;;;;;0.00;0.00;;;;;19.55;70.28;101848.59;5040331;28;45496;-78
2023/06/28 01:34:33;;;;;;;;;1.33;0.00;;;;;19.61;72.57;101872.34;5042767;28;45325;-78
2023/06/28 01:37:04;;;;;;;;;0.00;0.00;;;;;19.51;69.38;101849.75;5038783;28;45309;-78
2023/06/28 01:39:31;;;;;;;;;0.00;0.00;;;;;19.60;69.39;101872.44;5047102;28;45490;-78
2023/06/28 01:41:59;;;;;;;;;0.00;0.00;;;;;19.61;69.28;101875.00;5027369;28;45542;-78
2023/06/28 01:44:24;;;;;;;;;2.33;0.00;;;;;19.61;69.09;101866.97;5037441;28;46731;-77
2023/06/28 01:46:51;;;;;;;;;0.00;0.00;;;;;19.62;69.56;101860.66;5038104;28;45362;-77
2023/06/28 01:49:17;;;;;;;;;0.00;0.00;;;;;19.54;70.24;101854.06;5020442;28;45595;-78
2023/06/28 01:51:42;;;;;;;;;0.50;0.00;;;;;19.58;71.01;101861.81;5033721;28;47241;-77
2023/06/28 01:54:08;;;;;;;;;0.00;0.00;;;;;19.50;71.66;101849.88;5026116;28;47785;-78
2023/06/28 01:56:33;;;;;;;;;0.00;0.00;;;;;19.50;71.96;101855.25;5020570;28;45670;-77
2023/06/28 01:58:59;;;;;;;;;0.00;0.00;;;;;19.36;72.37;101853.47;5032691;28;45566;-77
2023/06/28 02:01:24;;;;;;;;;0.00;0.00;;;;;19.45;73.71;101865.41;5035743;28;45574;-78
2023/06/28 02:03:49;;;;;;;;;0.00;0.00;;;;;19.42;69.42;101871.84;5042145;28;46921;-78
2023/06/28 02:06:15;;;;;;;;;0.67;0.00;;;;;19.40;68.87;101872.91;5023273;28;50744;-78
2023/06/28 02:08:40;;;;;;;;;0.67;0.00;;;;;19.23;69.16;101844.50;5037581;28;45290;-78
2023/06/28 02:11:06;;;;;;;;;0.00;0.00;;;;;19.29;69.84;101854.81;5040864;28;45396;-78
2023/06/28 02:13:31;;;;;;;;;1.33;0.00;;;;;19.36;70.84;101866.88;5016301;28;49643;-77
2023/06/28 02:15:56;;;;;;;;;0.00;0.00;;;;;19.12;71.41;101822.91;5037586;28;45282;-78
2023/06/28 02:18:24;;;;;;;;;0.67;0.00;;;;;19.33;72.75;101866.22;5029298;28;45270;-78
2023/06/28 02:20:53;;;;;;;;;0.00;0.00;;;;;19.20;72.47;101845.59;5018552;28;45513;-78
2023/06/28 02:23:20;;;;;;;;;0.33;0.00;;;;;19.21;70.34;101844.59;5031614;28;45734;-78
2023/06/28 02:25:48;;;;;;;;;0.00;0.00;;;;;19.16;71.44;101829.78;5037687;28;45420;-77
2023/06/28 02:28:13;;;;;;;;;6.00;3.33;;;;;19.31;70.78;101855.56;5040307;28;45492;-78
2023/06/28 02:30:39;;;;;;;;;2.67;0.00;;;;;19.23;69.96;101848.06;5021814;28;52338;-78
2023/06/28 02:33:04;;;;;;;;;0.00;0.00;;;;;19.27;72.30;101849.56;5037187;28;46718;-78
2023/06/28 02:35:35;;;;;;;;;0.00;0.00;;;;;19.15;69.83;101830.75;5018122;28;45687;-78
2023/06/28 02:38:01;;;;;;;;;0.33;0.00;;;;;19.29;70.45;101854.81;5030863;28;45397;-77
2023/06/28 02:40:26;;;;;;;;;0.00;0.00;;;;;19.22;70.08;101846.31;5026462;28;45471;-77
2023/06/28 02:42:51;;;;;;;;;0.00;0.00;;;;;19.25;69.71;101848.81;5022660;28;46355;-78
2023/06/28 02:45:17;;;;;;;;;0.00;0.00;;;;;19.26;69.60;101847.00;5044676;28;45414;-78
2023/06/28 02:47:45;;;;;;;;;0.00;0.00;;;;;19.22;69.41;101851.69;5040089;28;46451;-78
2023/06/28 02:50:10;;;;;;;;;0.00;0.00;;;;;19.23;68.62;101853.44;5040834;28;45507;-78
2023/06/28 02:52:36;;;;;;;;;0.00;0.00;;;;;19.07;67.61;101827.72;5037237;28;45649;-78
2023/06/28 02:55:01;;;;;;;;;0.00;0.00;;;;;19.12;69.15;101833.63;5039908;28;56628;-78
2023/06/28 02:57:26;;;;;;;;;0.00;0.00;;;;;19.18;67.57;101844.81;5040810;28;45452;-78
2023/06/28 02:59:52;;;;;;;;;0.00;0.00;;;;;19.14;67.70;101848.66;5040318;28;45498;-78
2023/06/28 03:02:17;;;;;;;;;0.33;0.00;;;;;19.12;70.25;101839.84;5021598;28;45402;-78
2023/06/28 03:04:43;;;;;;;;;0.00;0.00;;;;;19.15;70.21;101838.78;5039150;28;45432;-78
2023/06/28 03:07:16;;;;;;;;;0.00;0.00;;;;;19.13;68.93;101841.59;5043959;28;45481;-78
2023/06/28 03:09:41;;;;;;;;;0.00;0.00;;;;;19.09;71.57;101837.38;5047552;28;45415;-78
2023/06/28 03:12:07;;;;;;;;;0.00;0.00;;;;;19.14;71.90;101855.84;5041983;28;46220;-78
2023/06/28 03:14:33;;;;;;;;;0.00;0.00;;;;;19.08;71.49;101848.19;5034935;28;45385;-78
2023/06/28 03:16:59;;;;;;;;;0.00;0.00;;;;;19.08;72.72;101850.88;5034248;28;45373;-78
2023/06/28 03:19:24;;;;;;;;;0.00;0.00;;;;;18.97;71.97;101838.19;5036476;28;45500;-78
2023/06/28 03:21:49;;;;;;;;;0.00;0.00;;;;;19.00;74.12;101856.75;5015761;28;49009;-78
2023/06/28 03:24:15;;;;;;;;;0.00;0.00;;;;;19.00;72.57;101847.84;5041337;28;45369;-78
2023/06/28 03:26:40;;;;;;;;;0.00;0.00;;;;;18.91;72.93;101841.28;5023603;28;45621;-78
2023/06/28 03:29:06;;;;;;;;;0.00;0.00;;;;;18.80;74.29;101821.47;5040210;28;45307;-78
2023/06/28 03:31:31;;;;;;;;;0.00;0.00;;;;;18.86;73.79;101843.38;5041475;28;45519;-78
2023/06/28 03:33:57;;;;;;;;;0.00;0.00;;;;;18.86;73.73;101850.56;5028695;28;45528;-78
2023/06/28 03:36:24;;;;;;;;;0.00;0.00;;;;;18.80;73.84;101834.88;5042042;28;45416;-78
2023/06/28 03:38:49;;;;;;;;;0.00;0.00;;;;;18.80;73.07;101840.25;5044410;28;45285;-78
2023/06/28 03:41:14;;;;;;;;;0.00;0.00;;;;;18.60;73.99;101810.25;5030866;28;48450;-78
2023/06/28 03:43:40;;;;;;;;;0.00;0.00;;;;;18.79;73.45;101855.47;5028500;28;45314;-78
2023/06/28 03:46:05;;;;;;;;;0.00;0.00;;;;;18.71;73.98;101849.75;5045751;28;45285;-78
2023/06/28 03:48:31;;;;;;;;;0.00;0.00;;;;;18.56;72.98;101824.78;5041805;28;45739;-78
2023/06/28 03:50:57;;;;;;;;;0.00;0.00;;;;;18.65;73.90;101842.94;5038559;28;45513;-77
2023/06/28 03:53:22;;;;;;;;;0.00;0.00;;;;;18.53;73.56;101830.34;5039126;28;45412;-78
2023/06/28 03:55:47;;;;;;;;;0.00;0.00;;;;;18.65;75.13;101848.31;5035671;28;45360;-78
2023/06/28 03:58:13;;;;;;;;;0.00;0.00;;;;;18.65;75.86;101848.31;5038028;28;45564;-78
2023/06/28 04:00:38;;;;;;;;;0.00;0.00;;;;;18.60;75.35;101834.34;5019390;28;46918;-77
2023/06/28 04:03:03;;;;;;;;;0.00;0.00;;;;;18.48;76.93;101834.25;5020787;28;45364;-77
2023/06/28 04:05:29;;;;;;;;;0.00;0.00;;;;;18.54;77.23;101834.75;5038922;28;45454;-77
2023/06/28 04:07:57;;;;;;;;;0.00;0.00;;;;;18.46;77.28;101831.66;5039816;28;45431;-77
2023/06/28 04:10:22;;;;;;;;;0.00;0.00;;;;;18.48;78.00;101824.41;5046013;28;45964;-78
2023/06/28 04:12:48;;;;;;;;;0.00;0.00;;;;;18.40;75.84;101812.44;5020738;28;45492;-78
2023/06/28 04:15:13;;;;;;;;;0.00;0.00;;;;;18.37;77.12;101829.56;5038653;28;45523;-77
2023/06/28 04:17:38;;;;;;;;;0.00;0.00;;;;;18.52;78.30;101843.84;5021996;28;45370;-78
2023/06/28 04:20:08;;;;;;;;;0.00;0.00;;;;;18.54;76.98;101848.16;5033560;28;52063;-78
2023/06/28 04:22:34;;;;;;;;;0.00;0.00;;;;;18.53;77.31;101850.91;5025605;28;45380;-78
2023/06/28 04:24:59;;;;;;;;;0.00;0.00;;;;;18.47;76.94;101838.75;5042138;28;45371;-77
2023/06/28 04:27:25;;;;;;;;;0.67;0.00;;;;;18.56;76.27;101845.34;5025838;28;45733;-78
2023/06/28 04:29:51;;;;;;;;;3.00;0.00;;;;;18.59;77.17;101847.84;5041828;28;45574;-78
2023/06/28 04:32:22;;;;;;;;;0.00;0.00;;;;;18.35;77.89;101809.19;5041909;28;45255;-77
2023/06/28 04:34:49;;;;;;;;;1.00;0.00;;;;;18.60;79.65;101839.72;5023074;28;45467;-78
2023/06/28 04:37:15;;;;;;;;;0.00;0.00;;;;;18.51;79.14;101816.19;5031448;28;47224;-77
2023/06/28 04:39:40;;;;;;;;;0.00;0.00;;;;;18.53;77.08;101811.59;5027235;28;47755;-78
2023/06/28 04:42:08;;;;;;;;;0.00;0.00;;;;;18.64;75.18;101841.25;5043739;28;45515;-78
2023/06/28 04:44:36;;;;;;;;;0.00;0.00;;;;;18.53;74.82;101808.91;5041631;28;45479;-78
2023/06/28 04:47:02;;;;;;;;;0.00;0.00;;;;;18.78;76.48;101842.19;5044733;28;45373;-77
2023/06/28 04:49:27;;;;;;;;;0.00;0.00;;;;;18.81;75.08;101841.97;5039649;28;46577;-77
2023/06/28 04:51:54;;;;;;;;;1.00;0.00;;;;;18.84;75.37;101839.09;5038545;28;45440;-78
2023/06/28 04:54:19;;;;;;;;;0.67;0.00;;;;;18.81;74.27;101825.91;5035149;28;45493;-78
2023/06/28 04:56:45;;;;;;;;;0.00;0.00;;;;;18.90;73.47;101834.19;5045921;28;45401;-77
2023/06/28 04:59:10;;;;;;;;;0.00;0.00;;;;;18.94;70.21;101838.41;5020399;28;46903;-77
2023/06/28 05:01:37;;;;;;;;;0.00;0.00;;;;;18.99;70.25;101828.22;5018310;28;45553;-78
2023/06/28 05:04:03;;;;;;;;;0.00;0.00;;;;;18.92;69.37;101815.31;5020252;28;45440;-77
2023/06/28 05:06:31;;;;;;;;;0.00;0.00;;;;;19.03;71.34;101826.19;5038100;28;45398;-78
2023/06/28 05:08:56;;;;;;;;;0.00;0.00;;;;;18.99;70.33;101813.94;5039953;28;47833;-78
2023/06/28 05:11:22;;;;;;;;;3.67;2.00;;;;;19.08;66.78;101832.97;5040759;28;45462;-78
2023/06/28 05:13:47;;;;;;;;;0.00;0.00;;;;;19.15;66.48;101833.41;5039076;28;45448;-78
2023/06/28 05:16:12;;;;;;;;;0.00;0.00;;;;;19.10;68.89;101822.16;5023903;28;46042;-78
2023/06/28 05:18:38;;;;;;;;;0.00;0.00;;;;;19.27;72.39;101838.00;5017611;28;46825;-78
2023/06/28 05:21:03;;;;;;;;;0.00;0.00;;;;;19.27;71.04;101837.13;5018431;28;45782;-78
2023/06/28 05:23:28;;;;;;;;;0.00;0.00;;;;;19.11;69.88;101791.66;5042340;28;45417;-78
2023/06/28 05:25:54;;;;;;;;;0.00;0.00;;;;;19.33;69.43;101825.97;5037102;28;45494;-78
2023/06/28 05:28:19;;;;;;;;;0.00;0.00;;;;;19.24;69.81;101809.53;5022547;28;46351;-78
2023/06/28 05:30:44;;;;;;;;;0.00;0.00;;;;;19.34;70.01;101814.28;5029033;28;45367;-78
2023/06/28 05:33:10;;;;;;;;;0.00;0.00;;;;;19.34;69.64;101807.06;5037379;28;45620;-77
2023/06/28 05:35:36;;;;;;;;;0.67;0.00;;;;;19.26;67.89;101785.28;5023001;28;46356;-78
2023/06/28 05:38:09;;;;;;;;;0.00;0.00;;;;;19.02;71.40;101742.22;5046208;28;46307;-77
2023/06/28 05:40:40;;;;;;;;;0.00;0.00;;;;;19.10;68.15;101729.16;5037686;28;45488;-78
2023/06/28 05:43:13;;;;;;;;;0.00;0.00;;;;;19.26;67.63;101755.78;5024508;28;45346;-77
2023/06/28 05:45:48;;;;;;;;;0.00;0.00;;;;;19.16;69.78;101731.41;5026744;28;45302;-78
2023/06/28 05:48:14;;;;;;;;;0.00;0.00;;;;;19.74;68.04;101806.09;5036322;28;45360;-78
2023/06/28 05:50:47;;;;;;;;;0.00;0.00;;;;;19.29;69.51;101744.84;5019763;28;45485;-78
2023/06/28 05:53:23;;;;;;;;;0.00;0.00;;;;;19.95;69.45;101833.28;5039271;28;45457;-77
2023/06/28 05:55:48;;;;;;;;;0.00;0.00;;;;;19.99;67.19;101832.09;5032236;28;45350;-77
2023/06/28 05:58:16;;;;;;;;;0.00;0.00;;;;;19.58;67.63;101759.81;5026735;28;47018;-78
2023/06/28 06:00:44;;;;;;;;;0.00;0.00;;;;;19.53;67.77;101734.28;5033910;28;45530;-78
2023/06/28 06:03:24;;;;;;;;;0.00;0.00;;;;;19.56;67.06;101737.63;5035571;28;45559;-79
2023/06/28 06:06:03;;;;;;;;;0.00;0.00;;;;;19.83;67.02;101774.22;5023857;28;45539;-80
2023/06/28 06:08:41;;;;;;;;;0.00;0.00;;;;;19.84;68.06;101783.97;5041879;28;46548;-81
2023/06/28 06:11:24;;;;;;;;;0.00;0.00;;;;;19.70;67.55;101750.03;5021015;28;45502;-80
2023/06/28 06:14:12;;;;;;;;;0.00;0.00;;;;;19.89;67.08;101763.91;5021992;28;45334;-79
2023/06/28 06:16:39;;;;;;;;;0.00;0.00;;;;;20.24;66.64;101817.81;5037395;28;45340;-80
2023/06/28 06:19:11;;;;;;;;;0.00;0.00;;;;;19.78;64.93;101726.22;5024465;28;45506;-80
2023/06/28 06:21:56;;;;;;;;;0.00;0.00;;;;;20.31;67.31;101791.38;5038336;28;45809;-80
2023/06/28 06:24:33;;;;;;;;;0.00;0.00;;;;;20.61;66.86;101832.19;5025055;28;45511;-78
2023/06/28 06:27:25;;;;;;;;;0.00;0.00;;;;;20.53;67.60;101813.03;5020200;28;45859;-80
2023/06/28 06:29:53;;;;;;;;;3.33;0.00;;;;;20.65;65.87;101826.44;5043745;28;46434;-80
2023/06/28 06:32:50;;;;;;;;;1.00;0.00;;;;;20.79;66.15;101852.31;5045488;28;45387;-80
2023/06/28 06:35:14;;;;;;;;;0.00;0.00;;;;;20.40;67.75;101755.78;5030859;28;46449;-80
2023/06/28 06:38:11;;;;;;;;;1.33;0.00;;;;;20.85;65.94;101833.03;5020736;28;45254;-80
2023/06/28 06:41:05;;;;;;;;;;;;;;;;;;;;;
2023/06/28 06:43:34;;;;;;;;;1.00;1.00;;;;;20.73;65.22;101775.66;5040802;28;73309;-80
2023/06/28 06:46:30;;;;;;;;;0.00;0.00;;;;;21.27;65.24;101850.53;5030915;28;45693;-80
2023/06/28 06:49:16;;;;;;;;;;;;;;;;;;;;;
2023/06/28 06:52:11;;;;;;;;;;;;;;;;;;;;;
2023/06/28 06:55:00;;;;;;;;;0.00;0.00;;;;;20.91;64.74;101729.56;5048423;28;74195;-80
2023/06/28 06:57:41;;;;;;;;;0.00;0.00;;;;;20.92;63.41;101732.13;5022428;28;45498;-80
2023/06/28 07:00:35;;;;;;;;;0.00;0.00;;;;;21.51;62.71;101804.75;5017710;28;45575;-81
2023/06/28 07:03:15;;;;;;;;;3.67;3.67;;;;;21.78;61.31;101851.09;5027213;28;46223;-80
2023/06/28 07:06:15;;;;;;;;;0.00;0.00;;;;;21.30;60.77;101773.13;5020300;28;45787;-81
2023/06/28 07:09:06;;;;;;;;;0.00;0.00;;;;;21.85;63.32;101849.66;5032833;28;45537;-81
2023/06/28 07:12:10;;;;;;;;;;;;;;;;;;;;;
2023/06/28 07:14:53;;;;;;;;;0.00;0.00;;;;;21.61;61.30;101749.22;5035292;28;74414;-80
2023/06/28 07:17:50;;;;;;;;;;;;;;;;;;;;;
2023/06/28 07:20:43;;;;;;;;;12.67;9.33;;;;;21.88;61.23;101760.53;5046680;28;67971;-81
2023/06/28 07:24:01;;;;;;;;;;;;;;;;;;;;;
2023/06/28 07:27:28;;;;;;;;;0.33;0.00;;;;;22.19;61.63;101788.59;5034233;28;74253;-81
2023/06/28 07:30:06;;;;;;;;;0.50;0.00;;;;;22.18;60.15;101774.28;5034316;28;45491;-81
2023/06/28 07:33:09;;;;;;;;;1.00;0.00;;;;;22.18;60.12;101760.81;5037535;28;45480;-81
2023/06/28 07:36:03;;;;;;;;;1.00;0.00;;;;;22.59;59.56;101819.44;5014413;28;45524;-81
2023/06/28 07:42:05;;;;;;;;;0.00;0.00;;;;;22.59;60.41;101783.53;5030801;28;45874;-80
2023/06/28 07:48:20;;;;;;;;;0.00;0.00;;;;;22.78;58.90;101770.25;5043323;28;45510;-80
2023/06/28 07:51:06;;;;;;;;;0.00;0.00;;;;;23.01;58.67;101789.94;5048287;28;45907;-80
2023/06/28 07:57:16;;;;;;;;;;;;;;;;;;;;;
2023/06/28 08:00:19;;;;;;;;;0.00;0.00;;;;;23.06;57.92;101749.94;5045323;28;70929;-80
2023/06/28 08:03:02;;;;;;;;;0.00;0.00;;;;;23.08;56.97;101737.16;5008269;28;45620;-80
2023/06/28 08:09:10;;;;;;;;;;;;;;;;;;;;;
2023/06/28 08:12:21;;;;;;;;;10.33;10.33;;;;;23.61;55.83;101752.34;5035902;28;71231;-80
2023/06/28 08:15:20;;;;;;;;;1.00;0.00;;;;;23.74;57.17;101755.69;5019516;28;46360;-80
2023/06/28 08:17:58;;;;;;;;;;;;;;;;;;;;;
2023/06/28 08:20:47;;;;;;;;;0.00;0.00;;;;;24.31;55.57;101817.31;5024822;28;67958;-81
2023/06/28 08:23:39;;;;;;;;;0.33;0.00;;;;;24.11;56.84;101757.88;5012824;28;45551;-80
2023/06/28 08:26:36;;;;;;;;;;;;;;;;;;;;;
2023/06/28 08:29:24;;;;;;;;;0.00;0.00;;;;;24.24;54.61;101758.53;5035583;28;72771;-80
2023/06/28 08:32:20;;;;;;;;;0.00;0.00;;;;;24.17;54.07;101749.25;5016929;28;45654;-80
2023/06/28 08:35:23;;;;;;;;;1.00;1.00;;;;;24.38;53.64;101780.59;5022179;28;45480;-80
2023/06/28 08:37:56;;;;;;;;;0.00;0.00;;;;;24.32;53.20;101739.75;5016574;28;45793;-81
2023/06/28 08:40:53;;;;;;;;;;;;;;;;;;;;;
2023/06/28 08:44:16;;;;;;;;;0.00;0.00;;;;;24.76;53.81;101782.56;5038117;28;70118;-79
2023/06/28 08:47:40;;;;;;;;;5.00;5.00;;;;;25.02;52.42;101809.97;4985957;28;45552;-79
2023/06/28 08:54:32;;;;;;;;;0.00;0.00;;;;;24.73;51.06;101749.53;4949524;28;45633;-79
2023/06/28 08:57:48;;;;;;;;;0.00;0.00;;;;;24.83;52.56;101731.47;5010946;28;45532;-79
2023/06/28 09:03:52;;;;;;;;;0.00;0.00;;;;;25.20;53.24;101732.44;4988031;28;46633;-79
2023/06/28 09:06:52;;;;;;;;;;;;;;;;;;;;;
2023/06/28 09:09:55;;;;;;;;;0.00;0.00;;;;;25.73;50.12;101786.16;5031999;28;67665;-79
2023/06/28 09:13:10;;;;;;;;;0.00;0.00;;;;;25.72;51.63;101765.50;5028528;28;45349;-79
2023/06/28 09:19:23;;;;;;;;;0.00;0.00;;;;;25.68;51.40;101723.41;4979049;28;45506;-79
2023/06/28 09:25:47;;;;;;;;;0.00;0.00;;;;;26.31;50.10;101805.81;5023902;28;46436;-79
2023/06/28 09:29:15;;;;;;;;;;;;;;;;;;;;;
2023/06/28 09:43:00;;;;;;;;;;;;;;;;;;;;;
2023/06/28 09:52:57;;;;;;;;;2.00;0.00;;;;;27.19;48.93;101789.69;5017189;28;45709;-80
2023/06/28 09:56:17;;;;;;;;;;;;;;;;;;;;;
2023/06/28 09:59:06;;;;;;;;;;;;;;;;;;;;;
2023/06/28 10:02:34;;;;;;;;;;;;;;;;;;;;;
2023/06/28 10:08:57;;;;;;;;;0.00;0.00;;;;;27.54;47.15;101706.44;4997687;28;45986;-81
2023/06/28 10:15:54;;;;;;;;;1.00;0.67;;;;;27.61;45.90;101707.50;4966508;28;45396;-81
2023/06/28 10:21:24;;;;;;;;;0.00;0.00;;;;;27.66;46.86;101703.28;5025162;28;45589;-81
2023/06/28 10:24:51;;;;;;;;;0.00;0.00;;;;;27.64;45.60;101686.31;5016806;28;45369;-80
2023/06/28 10:31:00;;;;;;;;;16.33;12.00;;;;;27.97;46.62;101681.88;5015298;28;45531;-80
2023/06/28 10:34:34;;;;;;;;;0.00;0.00;;;;;28.37;45.57;101724.75;5036825;28;46101;-80
2023/06/28 10:37:50;;;;;;;;;;;;;;;;;;;;;
2023/06/28 10:40:49;;;;;;;;;8.33;6.33;;;;;28.58;45.20;101729.72;4951718;28;67581;-80
2023/06/28 10:44:12;;;;;;;;;6.00;4.33;;;;;28.20;45.03;101680.31;4951102;28;45500;-80
2023/06/28 10:50:56;;;;;;;;;;;;;;;;;;;;;
2023/06/28 10:53:34;;;;;;;;;0.00;0.00;;;;;28.41;48.46;101677.09;4944923;28;70202;-80
2023/06/28 11:00:31;;;;;;;;;;;;;;;;;;;;;
2023/06/28 11:03:41;;;;;;;;;2.33;1.67;;;;;28.96;43.17;101658.28;4875682;29;73713;-80
2023/06/28 11:07:15;;;;;;;;;;;;;;;;;;;;;
2023/06/28 11:10:28;;;;;;;;;4.00;3.00;;;;;29.03;42.67;101674.81;4919287;28;72624;-80
2023/06/28 11:14:02;;;;;;;;;9.00;7.33;;;;;29.29;43.35;101703.59;4917111;28;45916;-80
2023/06/28 11:21:06;;;;;;;;;0.00;0.00;;;;;29.69;45.66;101707.28;4972114;28;45494;-81
2023/06/28 11:31:42;;;;;;;;;0.00;0.00;;;;;30.04;41.21;101695.91;4899426;28;45619;-80
2023/06/28 11:42:15;;;;;;;;;;;;;;;;;;;;;
2023/06/28 11:48:38;;;;;;;;;1.00;1.00;;;;;30.05;41.38;101626.69;5002905;28;45399;-80
2023/06/28 11:51:56;;;;;;;;;;;;;;;;;;;;;
2023/06/28 11:55:29;;;;;;;;;3.00;1.00;;;;;30.38;40.67;101633.66;5017755;28;75269;-81
2023/06/28 11:58:33;;;;;;;;;2.67;2.33;;;;;30.44;42.14;101623.91;5016385;28;45462;-80
2023/06/28 12:01:57;;;;;;;;;;;;;;;;;;;;;
2023/06/28 12:05:47;;;;;;;;;;;;;;;;;;;;;
2023/06/28 12:11:42;;;;;;;;;0.67;0.67;;;;;31.42;39.59;101677.53;4939842;28;45517;-81
2023/06/28 12:14:48;;;;;;;;;;;;;;;;;;;;;
2023/06/28 12:28:39;;;;;;;;;0.00;0.00;;;;;31.68;38.58;101589.56;4892739;28;45542;-81
2023/06/28 12:31:46;;;;;;;;;2.00;2.00;;;;;31.75;36.64;101604.19;4964506;28;45570;-81
2023/06/28 12:38:09;;;;;;;;;;;;;;;;;;;;;
2023/06/28 12:41:22;;;;;;;;;0.67;0.00;;;;;32.53;37.04;101658.19;4965285;28;67574;-81
2023/06/28 12:44:48;;;;;;;;;;;;;;;;;;;;;
2023/06/28 12:55:27;;;;;;;;;0.00;0.00;;;;;32.76;36.85;101652.53;4942224;28;45371;-81
2023/06/28 13:05:53;;;;;;;;;0.00;0.00;;;;;30.82;39.01;101601.09;4998596;28;45620;-81
2023/06/28 13:09:24;;;;;;;;;;;;;;;;;;;;;
2023/06/28 13:12:55;;;;;;;;;13.67;13.67;;;;;30.73;40.84;101566.66;4870079;29;45467;-81
2023/06/28 13:19:12;;;;;;;;;17.33;16.00;;;;;31.16;39.97;101565.06;4882241;29;45467;-80
2023/06/28 13:22:09;;;;;;;;;3.67;3.67;;;;;31.30;37.44;101566.09;4862910;28;45506;-81
2023/06/28 13:25:36;;;;;;;;;0.00;0.00;;;;;31.56;38.61;101614.88;4939586;28;45478;-81
2023/06/28 13:28:40;;;;;;;;;3.00;3.00;;;;;31.14;38.89;101590.88;4914496;28;45946;-81
2023/06/28 13:34:49;;;;;;;;;0.00;0.00;;;;;30.25;38.61;101556.13;4976356;28;45537;-81
2023/06/28 13:38:15;;;;;;;;;;;;;;;;;;;;;
2023/06/28 13:41:12;;;;;;;;;;;;;;;;;;;;;
2023/06/28 13:47:39;;;;;;;;;3.00;3.00;;;;;29.70;41.01;101550.81;4973857;28;45391;-80
2023/06/28 13:54:55;;;;;;;;;;;;;;;;;;;;;
2023/06/28 14:04:13;;;;;;;;;3.00;3.00;;;;;29.51;46.25;101543.06;4995471;28;45350;-80
2023/06/28 14:07:13;;;;;;;;;1.33;1.00;;;;;29.56;40.99;101551.56;4981306;28;45680;-81
2023/06/28 14:10:02;;;;;;;;;1.33;0.00;;;;;29.46;41.30;101538.13;4943053;28;45486;-81
2023/06/28 14:16:14;;;;;;;;;1.00;1.00;;;;;29.83;41.20;101587.44;4993677;28;45836;-81
2023/06/28 14:19:47;;;;;;;;;0.33;0.33;;;;;29.90;43.25;101593.03;4991181;28;45523;-81
2023/06/28 14:23:18;;;;;;;;;;;;;;;;;;;;;
2023/06/28 14:29:37;;;;;;;;;;;;;;;;;;;;;
2023/06/28 14:32:54;;;;;;;;;0.00;0.00;;;;;29.90;42.50;101588.41;5015910;28;75782;-80
2023/06/28 14:40:00;;;;;;;;;0.67;0.67;;;;;29.11;39.91;101497.72;4994396;28;45699;-80
2023/06/28 14:43:22;;;;;;;;;1.00;1.00;;;;;29.20;40.57;101537.53;4979908;28;45540;-81
2023/06/28 14:46:42;;;;;;;;;;;;;;;;;;;;;
2023/06/28 14:53:56;;;;;;;;;;;;;;;;;;;;;
2023/06/28 14:56:47;;;;;;;;;;;;;;;;;;;;;
2023/06/28 15:00:15;;;;;;;;;;;;;;;;;;;;;
2023/06/28 15:03:19;;;;;;;;;;;;;;;;;;;;;
2023/06/28 15:06:20;;;;;;;;;1.00;1.00;;;;;28.09;43.70;101486.59;4955156;28;67794;-80
2023/06/28 15:09:31;;;;;;;;;;;;;;;;;;;;;
2023/06/28 15:16:04;;;;;;;;;;;;;;;;;;;;;
2023/06/28 15:22:21;;;;;;;;;;;;;;;;;;;;;
2023/06/28 15:25:42;;;;;;;;;3.33;3.33;;;;;27.95;42.40;101490.78;5006894;28;75644;-81
2023/06/28 15:29:08;;;;;;;;;;;;;;;;;;;;;
2023/06/28 15:32:35;;;;;;;;;1.00;1.00;;;;;27.82;43.22;101472.25;5024829;28;67336;-80
2023/06/28 15:35:52;;;;;;;;;0.67;0.67;;;;;27.79;43.01;101482.63;4977680;28;45337;-80
2023/06/28 15:42:42;;;;;;;;;1.67;1.67;;;;;28.25;42.41;101547.31;5006969;28;45377;-80
2023/06/28 15:45:38;;;;;;;;;0.67;0.67;;;;;28.22;42.52;101544.06;5016017;28;46410;-81
2023/06/28 15:48:32;;;;;;;;;;;;;;;;;;;;;
2023/06/28 15:54:49;;;;;;;;;3.00;3.00;;;;;27.55;44.93;101452.69;5014216;28;45241;-81
2023/06/28 15:57:40;;;;;;;;;1.67;1.67;;;;;27.96;44.53;101538.75;5028135;28;45457;-81
2023/06/28 16:04:08;;;;;;;;;3.00;1.33;;;;;27.75;45.35;101473.09;5046684;28;45428;-80
2023/06/28 16:07:28;;;;;;;;;0.00;0.00;;;;;27.72;45.20;101465.28;4977172;28;45532;-81
2023/06/28 16:09:55;;;;;;;;;1.67;1.67;;;;;27.61;45.26;101444.72;4961048;28;45387;-81
2023/06/28 16:13:32;;;;;;;;;;;;;;;;;;;;;
2023/06/28 16:16:13;;;;;;;;;;;;;;;;;;;;;
2023/06/28 16:19:34;;;;;;;;;;;;;;;;;;;;;
2023/06/28 16:23:00;;;;;;;;;4.67;2.00;;;;;27.64;44.84;101438.94;4978195;28;67477;-81
2023/06/28 16:26:22;;;;;;;;;1.00;1.00;;;;;27.60;46.03;101470.19;4931971;28;45522;-81
2023/06/28 16:36:18;;;;;;;;;;;;;;;;;;;;;
2023/06/28 16:39:13;;;;;;;;;4.33;3.33;;;;;27.06;46.73;101438.06;4975855;28;72619;-80
2023/06/28 16:41:59;;;;;;;;;4.33;3.33;;;;;27.56;47.44;101531.31;5006226;28;46368;-80
2023/06/28 16:48:35;;;;;;;;;;;;;;;;;;;;;
2023/06/28 16:51:23;;;;;;;;;5.00;5.00;;;;;27.36;47.54;101518.97;5020025;28;73769;-80
2023/06/28 17:01:20;;;;;;;;;1.00;1.00;;;;;27.21;48.13;101499.75;4979190;28;45579;-80
2023/06/28 17:07:34;;;;;;;;;11.00;11.00;;;;;27.21;49.08;101472.59;4975576;28;46456;-80
2023/06/28 17:09:59;;;;;;;;;1.33;1.33;;;;;27.02;49.78;101442.97;4973417;28;45311;-80
2023/06/28 17:12:32;;;;;;;;;2.33;2.33;;;;;26.86;48.00;101408.44;4978008;28;45366;-81